Satellite Precipitation Estimates (TXUS20 KWBC)
Issued by NWS

Home | Current Version | Previous Version | Text Only | Print | Product List | Glossary On
Versions: 1 2 3 4 5 6 7 8
000
SPTD31 TTPP 261622
SPECI
TTPP 261619Z 07005KT 6000 -SHRA VCSH SCT014 BKN042 26/25 Q1010=



USA.gov is the U.S. government's official web portal to all federal, state and local government web resources and services.